Time;durP1;ratioP1;P1;durP2;ratioP2;P2;SDS_P1;SDS_P2;PMS_P1;PMS_P2;Temp;Humidity;BMP_temperature;BMP_pressure;BME280_temperature;BME280_humidity;BME280_pressure;Samples;Min_cycle;Max_cycle;Signal;HPM_P1;HPM_P2
2021/06/28 00:01:20;;;;;;;7.68;4.25;;;;;;;30.00;57.22;100918.28;5076431;28;64788;-28
2021/06/28 00:03:50;;;;;;;7.35;5.20;;;;;;;30.06;57.22;100912.00;5070237;28;69149;-26
2021/06/28 00:06:21;;;;;;;5.13;4.72;;;;;;;30.14;58.20;100919.88;5087909;27;65806;-26
2021/06/28 00:08:52;;;;;;;19.27;7.00;;;;;;;30.20;59.97;100913.66;5090796;27;68704;-27
2021/06/28 00:11:23;;;;;;;16.50;8.13;;;;;;;30.24;61.10;100914.91;5090270;27;65721;-26
2021/06/28 00:13:54;;;;;;;15.13;8.35;;;;;;;30.28;62.36;100921.53;5074927;28;69865;-27
2021/06/28 00:16:25;;;;;;;14.38;8.43;;;;;;;30.33;63.06;100920.88;5074669;27;65046;-28
2021/06/28 00:18:57;;;;;;;22.02;7.63;;;;;;;30.37;63.54;100913.16;5070883;28;69703;-31
2021/06/28 00:21:28;;;;;;;9.07;7.35;;;;;;;30.41;64.40;100909.00;5075045;27;66137;-30
2021/06/28 00:23:58;;;;;;;17.85;7.07;;;;;;;30.47;63.77;100913.53;5070413;27;70078;-28
2021/06/28 00:26:30;;;;;;;22.13;6.60;;;;;;;30.50;63.97;100921.22;5074759;27;66257;-29
2021/06/28 00:29:01;;;;;;;27.90;7.07;;;;;;;30.57;62.77;100921.19;5074073;28;69237;-29
2021/06/28 00:31:31;;;;;;;8.52;5.25;;;;;;;30.48;62.93;100909.78;5087673;27;65508;-30
2021/06/28 00:34:02;;;;;;;27.85;6.13;;;;;;;30.62;61.85;100921.34;5073879;28;68942;-29
2021/06/28 00:36:34;;;;;;;7.47;5.00;;;;;;;30.70;61.62;100930.06;5058618;27;66051;-29
2021/06/28 00:39:05;;;;;;;14.85;4.75;;;;;;;30.73;61.36;100935.03;5077803;27;69103;-30
2021/06/28 00:41:35;;;;;;;8.52;3.83;;;;;;;30.77;61.16;100935.44;5066500;27;65626;-30
2021/06/28 00:44:06;;;;;;;4.82;4.18;;;;;;;30.83;60.97;100933.75;5074146;28;69912;-29
2021/06/28 00:46:37;;;;;;;3.55;3.25;;;;;;;30.86;61.10;100927.91;5069148;28;65948;-29
2021/06/28 00:49:08;;;;;;;3.30;3.00;;;;;;;30.87;60.15;100913.28;5071594;27;68999;-29
2021/06/28 00:51:38;;;;;;;7.68;2.97;;;;;;;30.93;60.80;100934.94;5088736;27;67353;-30
2021/06/28 00:54:09;;;;;;;5.07;2.72;;;;;;;30.98;60.54;100920.75;5070234;27;69815;-29
2021/06/28 00:56:40;;;;;;;2.90;2.47;;;;;;;31.00;60.33;100940.28;5073474;27;65445;-30
2021/06/28 00:59:11;;;;;;;3.38;2.40;;;;;;;31.03;59.99;100937.13;5072521;27;69235;-34
2021/06/28 01:01:41;;;;;;;2.92;2.20;;;;;;;31.04;59.73;100936.09;5070236;27;66557;-29
2021/06/28 01:04:12;;;;;;;2.05;1.90;;;;;;;31.09;59.54;100933.56;5077145;27;69453;-28
2021/06/28 01:06:43;;;;;;;2.20;2.00;;;;;;;31.04;59.73;100927.97;5089512;27;66342;-29
2021/06/28 01:09:14;;;;;;;6.15;2.00;;;;;;;31.11;59.72;100941.47;5073168;27;70702;-29
2021/06/28 01:11:45;;;;;;;1.65;1.55;;;;;;;31.15;59.39;100940.81;5075496;27;67437;-30
2021/06/28 01:14:19;;;;;;;1.80;1.70;;;;;;;31.20;59.75;100947.44;5076744;27;69842;-29
2021/06/28 01:16:50;;;;;;;2.33;1.83;;;;;;;31.19;59.17;100941.19;5074546;28;65931;-31
2021/06/28 01:19:26;;;;;;;1.83;1.20;;;;;;;31.23;59.09;100949.69;5074729;28;70100;-30
2021/06/28 01:22:01;;;;;;;1.52;1.40;;;;;;;31.21;59.11;100947.22;5073707;28;65274;-30
2021/06/28 01:24:32;;;;;;;1.83;1.23;;;;;;;31.28;58.98;100964.25;5075038;28;70024;-29
2021/06/28 01:27:02;;;;;;;1.23;0.93;;;;;;;31.26;58.93;100958.22;5071659;28;65480;-29
2021/06/28 01:29:34;;;;;;;1.40;1.30;;;;;;;31.30;58.74;100967.56;5073094;28;70034;-30
2021/06/28 01:32:04;;;;;;;2.83;1.40;;;;;;;31.34;58.72;100965.25;5071844;28;66113;-29
2021/06/28 01:34:35;;;;;;;4.40;1.42;;;;;;;31.32;58.88;100960.06;5069949;28;70178;-30
2021/06/28 01:37:28;;;;;;;1.13;1.02;;;;;;;31.34;59.06;100965.25;5069057;27;66378;-31
2021/06/28 01:40:03;;;;;;;1.00;1.00;;;;;;;31.41;58.60;100974.19;5073372;28;70143;-30
2021/06/28 01:42:38;;;;;;;1.52;1.17;;;;;;;31.44;58.44;100973.75;5087542;27;66542;-29
2021/06/28 01:45:12;;;;;;;1.92;1.15;;;;;;;31.20;58.20;100928.47;5070330;28;69148;-30
2021/06/28 01:47:43;;;;;;;2.13;1.25;;;;;;;31.37;58.60;100952.13;5073136;28;66269;-29
2021/06/28 01:50:16;;;;;;;1.37;1.20;;;;;;;31.50;57.99;100967.41;5057350;27;70093;-31
2021/06/28 01:52:46;;;;;;;1.40;1.30;;;;;;;31.47;58.15;100951.59;5078900;27;65414;-29
2021/06/28 01:55:20;;;;;;;1.20;1.10;;;;;;;31.53;57.98;100956.13;5076077;27;70674;-31
2021/06/28 01:57:53;;;;;;;1.20;1.10;;;;;;;31.32;58.25;100910.44;5076641;28;66493;-29
2021/06/28 02:00:27;;;;;;;1.20;1.10;;;;;;;31.59;58.09;100959.81;5076497;27;69880;-30
2021/06/28 02:03:12;;;;;;;1.40;1.20;;;;;;;31.36;57.83;100903.53;5077724;28;65108;-30
2021/06/28 02:05:47;;;;;;;1.85;1.10;;;;;;;31.63;57.79;100938.53;5072823;27;68261;-31
2021/06/28 02:08:20;;;;;;;1.10;0.95;;;;;;;31.64;58.26;100946.44;5075399;28;65825;-29
2021/06/28 02:10:53;;;;;;;5.47;0.98;;;;;;;31.67;57.66;100937.03;5074494;28;69226;-31
2021/06/28 02:13:27;;;;;;;5.13;0.95;;;;;;;31.44;57.33;100887.00;5072034;27;65149;-30
2021/06/28 02:15:58;;;;;;;2.08;1.13;;;;;;;31.72;57.93;100937.19;5075987;27;69403;-33
2021/06/28 02:18:30;;;;;;;1.85;1.02;;;;;;;31.73;57.68;100944.25;5073813;28;66024;-30
2021/06/28 02:21:01;;;;;;;1.30;0.95;;;;;;;31.69;57.75;100929.50;5072358;28;70367;-32
2021/06/28 02:23:37;;;;;;;1.02;0.88;;;;;;;31.78;57.67;100947.13;5073806;28;65969;-30
2021/06/28 02:26:10;;;;;;;2.05;0.90;;;;;;;31.81;58.00;100946.69;5071518;27;68932;-31
2021/06/28 02:28:43;;;;;;;0.80;0.70;;;;;;;31.56;57.47;100890.59;5074268;28;65789;-30
2021/06/28 02:31:18;;;;;;;0.95;0.90;;;;;;;31.66;57.47;100898.25;5070537;28;70076;-30
2021/06/28 02:33:51;;;;;;;1.45;0.95;;;;;;;31.89;57.62;100927.38;5070894;28;65279;-31
2021/06/28 02:36:23;;;;;;;0.77;0.77;;;;;;;31.86;57.39;100911.56;5076269;27;69266;-28
2021/06/28 02:38:55;;;;;;;0.70;0.70;;;;;;;31.93;57.27;100920.50;5077110;28;65941;-29
2021/06/28 02:41:28;;;;;;;0.70;0.70;;;;;;;31.94;57.41;100914.00;5067481;28;69800;-31
2021/06/28 02:44:20;;;;;;;0.63;0.63;;;;;;;31.94;57.35;100908.59;5054449;28;65676;-31
2021/06/28 02:46:50;;;;;;;0.60;0.60;;;;;;;31.98;56.90;100909.81;5075904;27;70381;-33
2021/06/28 02:49:21;;;;;;;1.45;0.90;;;;;;;32.03;56.94;100911.81;5075647;28;65228;-29
2021/06/28 02:51:51;;;;;;;1.52;1.00;;;;;;;32.03;56.73;100909.94;5072986;28;70851;-31
2021/06/28 02:54:23;;;;;;;0.80;0.80;;;;;;;32.05;57.24;100915.97;5071550;27;65323;-32
2021/06/28 02:56:55;;;;;;;1.30;0.80;;;;;;;32.09;57.20;100915.50;5062125;28;68646;-32
2021/06/28 02:59:26;;;;;;;1.25;0.90;;;;;;;32.04;56.98;100898.03;5085562;27;66857;-31
2021/06/28 03:02:11;;;;;;;0.70;0.70;;;;;;;32.10;56.77;100900.91;5134915;27;43609;-31
2021/06/28 03:04:54;;;;;;;0.85;0.60;;;;;;;32.15;56.64;100907.28;5084827;27;43394;-30
2021/06/28 03:07:38;;;;;;;1.08;0.77;;;;;;;32.20;56.98;100904.69;5051761;28;43702;-32
2021/06/28 03:10:23;;;;;;;0.70;0.70;;;;;;;32.20;56.41;100898.44;5021428;28;44777;-31
2021/06/28 03:13:09;;;;;;;0.88;0.65;;;;;;;32.26;56.50;100894.81;5085305;27;42980;-34
2021/06/28 03:15:56;;;;;;;0.70;0.60;;;;;;;32.29;56.36;100899.81;5170315;27;44385;-30
2021/06/28 03:18:40;;;;;;;0.70;0.70;;;;;;;32.32;56.46;100888.50;5084069;27;44426;-30
2021/06/28 03:21:24;;;;;;;0.98;0.70;;;;;;;32.33;56.45;100887.41;5069618;27;43579;-34
2021/06/28 03:24:10;;;;;;;0.80;0.60;;;;;;;32.29;56.21;100886.25;5070053;27;43953;-32
2021/06/28 03:26:55;;;;;;;1.42;0.70;;;;;;;32.37;56.34;100885.06;5070585;27;43767;-31
2021/06/28 03:29:37;;;;;;;4.32;0.70;;;;;;;32.40;56.14;100880.03;5051997;27;2480226;-33
2021/06/28 03:32:18;;;;;;;0.65;0.65;;;;;;;32.30;56.50;100860.75;5052708;27;2391062;-31
2021/06/28 03:35:03;;;;;;;2.17;0.70;;;;;;;32.46;56.33;100879.13;5073877;27;44389;-30
2021/06/28 03:37:47;;;;;;;0.82;0.60;;;;;;;32.42;56.50;100867.03;5086443;27;43436;-30
2021/06/28 03:40:32;;;;;;;2.05;0.60;;;;;;;32.45;56.13;100872.00;5064194;27;43654;-31
2021/06/28 03:43:18;;;;;;;0.80;0.77;;;;;;;32.52;56.13;100871.94;5082045;27;44748;-39
2021/06/28 03:46:05;;;;;;;0.77;0.60;;;;;;;32.51;56.06;100851.25;5102500;27;42914;-34
2021/06/28 03:48:49;;;;;;;1.10;0.90;;;;;;;32.58;56.31;100860.16;5090821;27;43598;-32
2021/06/28 03:51:31;;;;;;;0.90;0.70;;;;;;;32.60;56.07;100857.22;5052661;27;2318318;-32
2021/06/28 03:54:17;;;;;;;1.08;0.80;;;;;;;32.61;56.16;100854.25;5062820;28;44449;-31
2021/06/28 03:57:01;;;;;;;1.25;0.70;;;;;;;32.65;55.91;100849.16;5083955;27;44375;-31
2021/06/28 03:59:41;;;;;;;0.75;0.60;;;;;;;32.66;55.92;100848.13;5064266;27;2401200;-37
2021/06/28 04:02:30;;;;;;;0.80;0.60;;;;;;;32.68;55.72;100838.69;5113518;27;43383;-31
2021/06/28 04:05:19;;;;;;;0.50;0.50;;;;;;;32.51;55.96;100804.28;5156143;27;44394;-29
2021/06/28 04:08:04;;;;;;;0.80;0.52;;;;;;;32.72;55.75;100828.16;5083685;27;42862;-30
2021/06/28 04:10:47;;;;;;;0.83;0.60;;;;;;;32.72;56.01;100822.75;5017566;27;2512872;-31
2021/06/28 04:13:30;;;;;;;0.70;0.70;;;;;;;32.77;55.94;100825.59;5076649;27;44548;-31
2021/06/28 04:16:15;;;;;;;1.88;0.60;;;;;;;32.73;55.57;100802.66;5087691;27;44537;-29
2021/06/28 04:18:59;;;;;;;0.70;0.70;;;;;;;32.81;55.93;100805.03;5073973;28;43726;-31
2021/06/28 04:21:44;;;;;;;0.73;0.50;;;;;;;32.85;56.01;100811.66;5115478;27;43767;-31
2021/06/28 04:24:29;;;;;;;0.70;0.57;;;;;;;32.87;55.68;100804.06;5076693;27;43768;-31
2021/06/28 04:27:13;;;;;;;0.80;0.60;;;;;;;32.89;55.19;100801.94;5084260;27;44407;-33
2021/06/28 04:29:56;;;;;;;2.88;0.60;;;;;;;32.92;55.82;100800.66;5080246;27;43681;-31
2021/06/28 04:32:37;;;;;;;0.57;0.52;;;;;;;32.93;55.46;100800.44;5055070;27;2310709;-30
2021/06/28 04:35:25;;;;;;;1.35;0.80;;;;;;;32.72;55.51;100754.84;5079901;27;44474;-30
2021/06/28 04:38:09;;;;;;;0.73;0.60;;;;;;;32.99;55.60;100786.94;5079505;27;44417;-30
2021/06/28 04:40:54;;;;;;;1.05;0.40;;;;;;;32.99;55.47;100779.66;5065058;28;44419;-30
2021/06/28 04:43:37;;;;;;;0.90;0.60;;;;;;;32.92;55.71;100763.44;5078373;27;44424;-30
2021/06/28 04:46:21;;;;;;;0.98;0.60;;;;;;;33.06;55.43;100780.34;5068566;28;44187;-31
2021/06/28 04:49:16;;;;;;;1.00;0.60;;;;;;;33.06;55.61;100774.09;5067209;27;2422598;-32
2021/06/28 04:52:02;;;;;;;0.70;0.70;;;;;;;33.02;55.38;100759.34;5085221;27;45303;-30
2021/06/28 04:54:47;;;;;;;0.60;0.55;;;;;;;33.06;55.54;100760.50;5081543;27;45119;-30
2021/06/28 04:57:34;;;;;;;1.15;0.80;;;;;;;33.09;55.36;100754.59;5053447;27;44712;-31
2021/06/28 05:00:23;;;;;;;0.80;0.80;;;;;;;32.86;55.36;100710.06;5083241;27;44999;-30
2021/06/28 05:03:08;;;;;;;4.20;0.68;;;;;;;33.10;55.34;100748.13;5079691;27;43685;-31
2021/06/28 05:05:52;;;;;;;1.48;0.68;;;;;;;33.20;55.03;100737.44;5061261;28;43764;-31
2021/06/28 05:08:39;;;;;;;0.95;0.65;;;;;;;33.22;55.23;100746.19;5095342;27;44231;-30
2021/06/28 05:11:21;;;;;;;2.70;0.73;;;;;;;33.22;55.17;100740.75;5045803;27;2708706;-29
2021/06/28 05:14:05;;;;;;;1.52;0.70;;;;;;;33.24;54.98;100726.91;5080008;27;43575;-30
2021/06/28 05:16:49;;;;;;;1.10;0.85;;;;;;;33.23;55.28;100728.81;5084358;27;43498;-30
2021/06/28 05:19:53;;;;;;;1.00;0.70;;;;;;;33.26;54.98;100724.78;5079359;27;44537;-33
2021/06/28 05:22:38;;;;;;;0.88;0.50;;;;;;;33.21;54.91;100711.09;5066586;27;43085;-32
2021/06/28 05:25:24;;;;;;;0.82;0.68;;;;;;;33.31;55.07;100714.03;5078530;27;44151;-30
2021/06/28 05:28:10;;;;;;;0.95;0.65;;;;;;;33.33;54.95;100715.44;5121724;27;43664;-31
2021/06/28 05:30:57;;;;;;;1.15;0.82;;;;;;;33.32;55.14;100716.50;5078832;27;43652;-34
2021/06/28 05:33:44;;;;;;;1.27;0.60;;;;;;;33.31;55.16;100714.84;5075893;27;43404;-34
2021/06/28 05:36:54;;;;;;;0.73;0.73;;;;;;;33.40;55.00;100714.47;5126399;27;43697;-30
2021/06/28 05:39:39;;;;;;;1.35;0.70;;;;;;;33.30;54.71;100699.59;5109205;27;43587;-32
2021/06/28 05:42:24;;;;;;;2.92;0.70;;;;;;;33.42;54.91;100717.78;5076558;27;43108;-33
2021/06/28 05:45:11;;;;;;;0.63;0.60;;;;;;;33.46;55.10;100713.50;5071010;27;43063;-34
2021/06/28 05:48:01;;;;;;;0.80;0.55;;;;;;;33.46;54.83;100713.50;5078533;27;43725;-31
2021/06/28 05:50:48;;;;;;;4.28;0.75;;;;;;;33.50;54.40;100709.22;5085270;27;43179;-31
2021/06/28 05:53:38;;;;;;;0.85;0.70;;;;;;;33.53;54.86;100708.78;5123414;27;44627;-29
2021/06/28 05:56:23;;;;;;;0.60;0.60;;;;;;;33.54;54.87;100710.41;5076765;27;44325;-31
2021/06/28 05:59:10;;;;;;;0.68;0.68;;;;;;;33.54;54.74;100704.97;5067282;27;44565;-31
2021/06/28 06:01:52;;;;;;;0.80;0.80;;;;;;;33.60;54.66;100706.75;5041373;27;2723227;-30
2021/06/28 06:04:37;;;;;;;0.60;0.50;;;;;;;33.63;54.78;100703.53;5080014;27;42909;-30
2021/06/28 06:07:21;;;;;;;0.65;0.50;;;;;;;33.63;54.71;100708.97;5077366;27;44474;-30
2021/06/28 06:10:14;;;;;;;0.80;0.57;;;;;;;33.62;54.52;100696.44;5078846;27;43602;-31
2021/06/28 06:13:03;;;;;;;0.80;0.57;;;;;;;33.67;54.57;100699.25;5079270;27;44092;-30
2021/06/28 06:15:49;;;;;;;0.88;0.43;;;;;;;33.74;54.26;100699.09;5053771;27;43665;-32
2021/06/28 06:18:34;;;;;;;0.93;0.50;;;;;;;33.80;54.36;100704.41;5081075;27;42850;-34
2021/06/28 06:21:24;;;;;;;0.80;0.60;;;;;;;33.81;54.42;100689.72;5084344;27;44512;-30
2021/06/28 06:24:11;;;;;;;1.35;0.63;;;;;;;33.81;54.17;100678.81;5078036;27;43033;-33
2021/06/28 06:26:57;;;;;;;1.83;0.60;;;;;;;33.81;54.16;100692.44;5098496;27;44401;-31
2021/06/28 06:29:45;;;;;;;0.60;0.50;;;;;;;33.86;54.28;100688.16;5069623;27;43788;-35
2021/06/28 06:32:30;;;;;;;2.85;0.50;;;;;;;33.85;54.31;100686.50;5100982;27;43656;-31
2021/06/28 06:35:16;;;;;;;5.60;0.60;;;;;;;33.87;54.22;100682.47;5080652;27;44466;-31
2021/06/28 06:38:03;;;;;;;0.57;0.50;;;;;;;33.83;54.26;100666.91;5084073;27;43606;-33
2021/06/28 06:41:02;;;;;;;2.33;0.73;;;;;;;33.89;54.09;100674.88;5048696;27;2848081;-32
2021/06/28 06:44:01;;;;;;;0.55;0.50;;;;;;;33.88;54.17;100667.81;5082497;27;43339;-32
2021/06/28 06:46:44;;;;;;;0.70;0.70;;;;;;;33.94;54.46;100676.88;5031389;27;2928018;-33
2021/06/28 06:49:30;;;;;;;0.95;0.52;;;;;;;33.92;54.50;100673.56;5081876;27;44486;-31
2021/06/28 06:52:17;;;;;;;0.57;0.50;;;;;;;34.02;53.78;100679.19;5041548;27;43656;-31
2021/06/28 06:55:02;;;;;;;0.60;0.60;;;;;;;34.03;53.89;100676.22;5022298;27;2931092;-31
2021/06/28 06:57:46;;;;;;;1.05;0.50;;;;;;;34.05;53.82;100645.25;4989673;27;3912738;-28
2021/06/28 07:00:33;;;;;;;1.85;0.60;;;;;;;34.15;53.82;100662.53;5082134;27;43717;-30
2021/06/28 07:03:26;;;;;;;0.60;0.60;;;;;;;34.20;53.96;100670.81;5088640;27;43747;-32
2021/06/28 07:06:15;;;;;;;0.40;0.40;;;;;;;34.25;53.78;100662.72;5083774;27;43681;-31
2021/06/28 07:08:58;;;;;;;0.90;0.60;;;;;;;34.20;53.84;100653.66;5049496;27;2801556;-31
2021/06/28 07:11:46;;;;;;;3.10;0.60;;;;;;;34.29;53.60;100663.03;5062774;27;44677;-31
2021/06/28 07:14:32;;;;;;;4.93;0.60;;;;;;;34.34;53.59;100659.56;5084053;27;43710;-30
2021/06/28 07:17:20;;;;;;;0.60;0.50;;;;;;;34.37;53.40;100653.63;5083114;27;43695;-32
2021/06/28 07:20:09;;;;;;;0.60;0.50;;;;;;;34.37;53.39;100645.47;5060267;27;44628;-31
2021/06/28 07:22:54;;;;;;;0.70;0.50;;;;;;;34.36;53.26;100638.38;5052484;27;2281092;-31
2021/06/28 07:25:40;;;;;;;0.95;0.50;;;;;;;34.35;53.60;100633.97;5069481;27;43594;-30
2021/06/28 07:28:24;;;;;;;0.77;0.52;;;;;;;34.44;53.26;100637.94;5072924;27;44462;-31
2021/06/28 07:31:06;;;;;;;1.05;0.57;;;;;;;34.44;53.30;100638.78;5026243;27;2309015;-31
2021/06/28 07:33:50;;;;;;;0.85;0.60;;;;;;;34.43;53.09;100619.94;5066192;28;44448;-32
2021/06/28 07:36:35;;;;;;;0.73;0.60;;;;;;;34.47;53.15;100604.75;5061637;28;44523;-32
2021/06/28 07:39:20;;;;;;;0.88;0.60;;;;;;;34.44;53.17;100610.72;5094485;27;43714;-30
2021/06/28 07:42:06;;;;;;;0.60;0.50;;;;;;;34.43;53.05;100603.59;5079437;27;43707;-32
2021/06/28 07:44:49;;;;;;;0.80;0.55;;;;;;;34.49;52.84;100618.94;5073954;27;43761;-30
2021/06/28 07:47:36;;;;;;;1.27;0.50;;;;;;;34.42;52.95;100593.78;5103367;27;44357;-32
2021/06/28 07:50:21;;;;;;;0.50;0.50;;;;;;;34.47;53.18;100600.13;5056501;28;44468;-31
2021/06/28 07:53:05;;;;;;;1.58;0.60;;;;;;;34.43;53.01;100590.00;5076418;27;43759;-34
2021/06/28 07:55:49;;;;;;;1.05;0.60;;;;;;;34.48;53.11;100584.63;5058744;27;44822;-30
2021/06/28 07:58:30;;;;;;;0.98;0.60;;;;;;;34.54;53.20;100594.50;5051594;27;2331935;-31
2021/06/28 08:01:16;;;;;;;3.58;0.80;;;;;;;34.56;53.28;100592.38;5071414;27;42982;-32
2021/06/28 08:04:02;;;;;;;2.65;0.60;;;;;;;34.56;53.17;100595.09;5084829;27;44631;-30
2021/06/28 08:06:48;;;;;;;3.10;0.68;;;;;;;34.59;52.85;100594.59;5091868;27;44743;-30
2021/06/28 08:09:34;;;;;;;1.10;0.60;;;;;;;34.56;53.07;100581.47;5110427;27;44365;-30
2021/06/28 08:12:36;;;;;;;0.52;0.52;;;;;;;34.61;53.09;100578.84;5078302;27;43910;-30
2021/06/28 08:15:21;;;;;;;1.25;0.70;;;;;;;34.64;52.88;100566.59;5062023;27;43748;-31
2021/06/28 08:18:07;;;;;;;1.23;0.65;;;;;;;34.63;52.83;100559.50;5068376;27;43729;-30
2021/06/28 08:20:53;;;;;;;0.50;0.50;;;;;;;34.61;52.74;100559.75;5082862;27;44611;-32
2021/06/28 08:23:41;;;;;;;0.77;0.77;;;;;;;34.65;52.87;100563.63;5082893;27;43792;-33
2021/06/28 08:26:34;;;;;;;0.70;0.70;;;;;;;34.61;52.90;100556.22;5064098;27;44682;-31
2021/06/28 08:29:09;;;;;;;0.70;0.63;;;;;;;34.64;53.11;100556.53;5055719;28;70129;-32
2021/06/28 08:32:00;;;;;;;0.80;0.60;;;;;;;34.63;53.00;100549.44;5057338;27;65507;-30
2021/06/28 08:34:48;;;;;;;0.90;0.60;;;;;;;34.41;52.80;100516.72;5068494;27;43534;-30
2021/06/28 08:37:48;;;;;;;3.95;0.90;;;;;;;34.66;53.16;100548.94;5062910;27;43689;-31
2021/06/28 08:40:36;;;;;;;0.80;0.63;;;;;;;34.67;52.77;100556.03;5066305;27;44426;-34
2021/06/28 08:43:22;;;;;;;1.27;0.70;;;;;;;34.67;53.03;100550.56;5084855;27;44879;-30
2021/06/28 08:46:09;;;;;;;1.10;0.75;;;;;;;34.66;52.87;100548.94;5127785;27;44446;-30
2021/06/28 08:48:57;;;;;;;1.90;0.80;;;;;;;34.67;53.05;100539.66;5038491;27;2794031;-35
2021/06/28 08:51:51;;;;;;;0.75;0.50;;;;;;;34.67;53.03;100547.84;5077358;27;43737;-33
2021/06/28 08:54:36;;;;;;;1.25;0.80;;;;;;;34.58;52.88;100535.75;5147077;27;43667;-31
2021/06/28 08:57:24;;;;;;;1.20;0.70;;;;;;;34.64;52.53;100555.72;5144172;27;43700;-32
2021/06/28 08:59:56;;;;;;;1.05;0.77;;;;;;;34.60;52.75;100543.66;5128912;27;70063;-32
2021/06/28 09:03:04;;;;;;;0.75;0.70;;;;;;;34.62;52.81;100569.56;5072563;27;43725;-34
2021/06/28 09:06:10;;;;;;;0.60;0.57;;;;;;;34.65;52.73;100552.72;5083328;27;44989;-33
2021/06/28 09:09:11;;;;;;;1.77;0.75;;;;;;;34.67;52.99;100547.03;5056139;27;43151;-33
2021/06/28 09:11:57;;;;;;;0.80;0.65;;;;;;;34.68;52.82;100545.94;5078866;27;43764;-31
2021/06/28 09:14:49;;;;;;;2.00;0.70;;;;;;;34.68;53.00;100546.75;5084755;27;43741;-34
2021/06/28 09:17:51;;;;;;;2.38;0.40;;;;;;;34.69;53.19;100544.88;5064715;28;43667;-33
2021/06/28 09:20:38;;;;;;;0.80;0.70;;;;;;;34.69;52.97;100540.25;5082173;27;43248;-30
2021/06/28 09:23:45;;;;;;;2.42;0.68;;;;;;;34.61;52.73;100548.88;5074648;27;44598;-33
2021/06/28 09:26:33;;;;;;;2.53;0.60;;;;;;;34.70;52.79;100533.72;5071615;27;44606;-32
2021/06/28 09:29:17;;;;;;;0.60;0.60;;;;;;;34.68;52.60;100537.75;5043765;27;2635168;-31
2021/06/28 09:32:19;;;;;;;2.50;0.77;;;;;;;34.68;52.72;100535.03;5164711;27;44535;-33
2021/06/28 09:35:04;;;;;;;0.55;0.55;;;;;;;34.67;52.60;100528.78;5079220;27;44455;-31
2021/06/28 09:37:49;;;;;;;1.25;0.85;;;;;;;34.63;52.44;100519.47;5086854;27;44568;-34
2021/06/28 09:40:35;;;;;;;2.35;0.70;;;;;;;34.70;52.59;100522.81;5081771;27;43682;-32
2021/06/28 09:43:23;;;;;;;1.10;0.50;;;;;;;34.68;52.43;100514.06;5046235;27;2318939;-33
2021/06/28 09:46:23;;;;;;;0.60;0.60;;;;;;;34.69;52.68;100515.72;5101719;27;43689;-32
2021/06/28 09:49:07;;;;;;;1.13;0.70;;;;;;;34.68;52.70;100514.06;5079302;27;43714;-32
2021/06/28 09:51:50;;;;;;;1.55;0.52;;;;;;;34.69;52.44;100521.19;5084220;27;44509;-31
2021/06/28 09:54:49;;;;;;;2.83;0.70;;;;;;;34.72;52.54;100527.19;5079909;27;44556;-31
2021/06/28 09:58:10;;;;;;;0.93;0.70;;;;;;;34.63;52.74;100533.09;5084770;27;45026;-31
2021/06/28 10:01:08;;;;;;;0.70;0.70;;;;;;;34.65;52.69;100525.47;5036815;27;44380;-31
2021/06/28 10:04:04;;;;;;;0.73;0.55;;;;;;;34.68;52.31;100529.59;5108212;27;44642;-31
2021/06/28 10:07:22;;;;;;;1.15;0.70;;;;;;;34.70;52.56;100536.44;5077986;27;43732;-31
2021/06/28 10:10:30;;;;;;;0.50;0.50;;;;;;;34.57;52.80;100525.91;5081515;27;43579;-32
2021/06/28 10:13:13;;;;;;;0.60;0.50;;;;;;;34.68;52.75;100554.94;4620813;27;15269206;-29
2021/06/28 10:16:15;;;;;;;0.75;0.63;;;;;;;34.69;52.88;100547.59;5189713;27;44497;-31
2021/06/28 10:19:44;;;;;;;1.42;0.52;;;;;;;34.43;52.37;100511.00;5190866;27;44330;-31
2021/06/28 10:22:47;;;;;;;0.82;0.47;;;;;;;34.65;52.49;100557.34;5079132;27;44502;-31
2021/06/28 10:25:47;;;;;;;1.67;0.50;;;;;;;34.68;52.65;100579.44;5184321;27;43654;-31
2021/06/28 10:29:03;;;;;;;2.53;0.60;;;;;;;34.70;52.61;100581.94;5141756;27;44956;-31
2021/06/28 10:32:04;;;;;;;1.08;0.50;;;;;;;34.46;52.68;100549.47;5081295;27;43716;-31
2021/06/28 10:35:10;;;;;;;0.95;0.60;;;;;;;34.71;52.68;100605.38;5185321;27;44412;-32
2021/06/28 10:38:15;;;;;;;1.88;0.70;;;;;;;34.58;52.87;100587.50;5189785;27;43675;-32
2021/06/28 10:41:49;;;;;;;1.67;1.00;;;;;;;34.60;53.39;100609.88;5109768;27;43687;-31
2021/06/28 10:44:50;;;;;;;3.65;1.42;;;;;;;34.45;52.70;100574.22;5083114;27;44967;-30
2021/06/28 10:47:40;;;;;;;3.03;1.52;;;;;;;34.57;53.18;100604.91;5088619;27;44649;-31
2021/06/28 10:51:07;;;;;;;3.05;1.75;;;;;;;34.60;53.21;100628.94;5095174;27;44365;-30
2021/06/28 10:54:06;;;;;;;1.55;1.45;;;;;;;34.60;53.13;100631.66;5090260;27;43679;-30
2021/06/28 10:56:56;;;;;;;15.18;1.98;;;;;;;34.60;53.17;100631.66;5070677;27;70272;-31
2021/06/28 10:59:47;;;;;;;6.68;1.70;;;;;;;34.56;53.10;100630.50;5095426;27;63858;-31
2021/06/28 11:02:40;;;;;;;5.43;2.40;;;;;;;34.48;53.37;100620.84;5075204;27;69589;-31
2021/06/28 11:05:29;;;;;;;12.98;3.60;;;;;;;34.40;52.80;100617.72;5071859;27;66435;-30
2021/06/28 11:08:24;;;;;;;12.35;4.20;;;;;;;34.54;52.52;100643.53;5076679;27;70077;-30
2021/06/28 11:11:45;;;;;;;14.25;4.55;;;;;;;34.42;53.21;100653.72;5079123;27;66440;-32
2021/06/28 11:14:38;;;;;;;9.85;5.30;;;;;;;34.51;53.32;100652.19;5071499;27;69792;-31
2021/06/28 11:17:38;;;;;;;12.77;5.78;;;;;;;34.45;53.08;100647.75;5073994;27;66044;-30
2021/06/28 11:20:35;;;;;;;11.95;6.05;;;;;;;34.46;52.36;100643.94;5070517;27;70351;-32
2021/06/28 11:23:24;;;;;;;21.98;6.70;;;;;;;34.44;52.26;100637.94;5064734;27;66350;-35
2021/06/28 11:25:57;;;;;;;9.02;6.75;;;;;;;34.43;51.87;100641.72;5055457;28;71402;-30
2021/06/28 11:28:57;;;;;;;21.48;7.72;;;;;;;34.42;52.78;100632.75;5185671;27;43958;-29
2021/06/28 11:32:22;;;;;;;16.00;6.85;;;;;;;34.35;52.84;100631.25;5185069;27;43673;-30
2021/06/28 11:34:56;;;;;;;16.02;5.88;;;;;;;34.41;53.10;100622.13;5153242;27;68886;-30
2021/06/28 11:37:28;;;;;;;9.52;6.07;;;;;;;34.38;53.09;100628.03;5165653;27;66163;-29
2021/06/28 11:40:01;;;;;;;7.38;4.95;;;;;;;34.41;53.06;100630.28;5165992;27;69221;-30
2021/06/28 11:43:01;;;;;;;7.60;4.83;;;;;;;34.08;53.44;100584.88;4470110;27;19006791;-30
2021/06/28 11:46:00;;;;;;;6.13;5.40;;;;;;;34.41;53.02;100628.38;5170329;27;43633;-30
2021/06/28 11:49:04;;;;;;;4.75;4.45;;;;;;;34.39;53.39;100629.69;5184519;27;44505;-29
2021/06/28 11:52:16;;;;;;;4.38;4.07;;;;;;;34.41;52.91;100631.09;5120906;27;43654;-30
2021/06/28 11:55:16;;;;;;;5.07;4.43;;;;;;;34.40;53.30;100642.22;5184499;27;43711;-31
2021/06/28 11:58:27;;;;;;;4.47;4.07;;;;;;;34.41;53.44;100660.25;5144860;27;43699;-30
2021/06/28 12:01:55;;;;;;;7.55;3.63;;;;;;;34.37;53.95;100659.06;5103340;27;44565;-29
2021/06/28 12:04:37;;;;;;;14.02;5.00;;;;;;;34.01;55.32;100618.47;4612795;27;15218831;-32
2021/06/28 12:07:52;;;;;;;9.02;4.40;;;;;;;34.10;52.97;100665.22;5132626;27;43602;-32
2021/06/28 12:10:55;;;;;;;10.23;3.58;;;;;;;33.60;50.60;100636.03;5087596;27;43821;-32
2021/06/28 12:13:40;;;;;;;13.77;3.42;;;;;;;33.64;49.94;100682.59;4494383;27;18772899;-32
2021/06/28 12:16:42;;;;;;;3.67;3.20;;;;;;;33.38;48.58;100682.91;5086594;27;43800;-31
2021/06/28 12:19:49;;;;;;;7.53;2.65;;;;;;;33.24;47.40;100684.28;5082442;27;43672;-32
2021/06/28 12:22:51;;;;;;;3.08;2.78;;;;;;;33.04;47.89;100672.97;5089464;27;44398;-32
2021/06/28 12:25:35;;;;;;;3.58;2.70;;;;;;;32.86;47.18;100685.63;3965464;27;33366012;-34
2021/06/28 12:28:28;;;;;;;3.95;2.83;;;;;;;32.70;45.50;100699.91;5090994;27;43764;-31
2021/06/28 12:31:16;;;;;;;7.97;3.45;;;;;;;32.67;47.04;100705.81;5054452;28;43787;-30
2021/06/28 12:34:00;;;;;;;10.20;4.28;;;;;;;32.55;47.38;100702.28;5052179;27;2393302;-32
2021/06/28 12:36:52;;;;;;;5.10;3.60;;;;;;;32.47;46.32;100701.56;5081148;27;44483;-33
2021/06/28 12:39:40;;;;;;;6.10;3.30;;;;;;;32.36;46.17;100699.66;5083330;27;43680;-33
2021/06/28 12:42:45;;;;;;;8.40;3.42;;;;;;;32.28;45.61;100698.09;5083288;27;44561;-31
2021/06/28 12:45:35;;;;;;;8.70;2.97;;;;;;;32.20;44.53;100698.44;5070925;27;43736;-34
2021/06/28 12:48:24;;;;;;;8.25;2.58;;;;;;;32.12;44.77;100697.97;5115496;27;44508;-31